Aviation Digital Data Service (ADDS)

Output produced by METARs form (0856 UTC 19 June 2018)
found at http://www.aviationweather.gov/adds/metars/
 
METAR text: KDUJ 190853Z AUTO 26007KT 8SM BKN004 OVC065 21/21 A2992 RMK AO2 RAE52 SLP117 P0010 60028 T02110211 55004
Conditions at: KDUJ (DU BOIS , PA, US) observed 0853 UTC 19 June 2018
Temperature: 21.1°C (70°F)
Dewpoint: 21.1°C (70°F) [RH = 100%]
Pressure (altimeter): 29.92 inches Hg (1013.3 mb)
[Sea-level pressure: 1011.7 mb]
Winds: from the W (260 degrees) at 8 MPH (7 knots; 3.6 m/s)
Visibility: 8 miles (13 km)
Ceiling: 400 feet AGL
Clouds: broken clouds at 400 feet AGL
overcast cloud deck at 6500 feet AGL
Weather: automated observation with no human augmentation;
there may or may not be significant weather present at this time

METAR text: KDUJ 190840Z AUTO 27006KT 3SM -RA BR BKN003 OVC070 21/21 A2992 RMK AO2 P0010 T02110211
Conditions at: KDUJ (DU BOIS , PA, US) observed 0840 UTC 19 June 2018
Temperature: 21.1°C (70°F)
Dewpoint: 21.1°C (70°F) [RH = 100%]
Pressure (altimeter): 29.92 inches Hg (1013.3 mb)
Winds: from the W (270 degrees) at 7 MPH (6 knots; 3.1 m/s)
Visibility: 3 miles (5 km)
Ceiling: 300 feet AGL
Clouds: broken clouds at 300 feet AGL
overcast cloud deck at 7000 feet AGL
Weather: -RA BR  (light rain, mist)

METAR text: KDUJ 190827Z AUTO 25009KT 2SM RA BR BKN003 OVC025 21/21 A2992 RMK AO2 P0008 T02110211
Conditions at: KDUJ (DU BOIS , PA, US) observed 0827 UTC 19 June 2018
Temperature: 21.1°C (70°F)
Dewpoint: 21.1°C (70°F) [RH = 100%]
Pressure (altimeter): 29.92 inches Hg (1013.3 mb)
Winds: from the WSW (250 degrees) at 10 MPH (9 knots; 4.7 m/s)
Visibility: 2.00 miles (3.22 km)
Ceiling: 300 feet AGL
Clouds: broken clouds at 300 feet AGL
overcast cloud deck at 2500 feet AGL
Weather: RA BR  (rain, mist)

METAR text: KDUJ 190809Z AUTO 25009KT 3SM -RA BR OVC003 21/21 A2992 RMK AO2 P0003 T02110211
Conditions at: KDUJ (DU BOIS , PA, US) observed 0809 UTC 19 June 2018
Temperature: 21.1°C (70°F)
Dewpoint: 21.1°C (70°F) [RH = 100%]
Pressure (altimeter): 29.92 inches Hg (1013.3 mb)
Winds: from the WSW (250 degrees) at 10 MPH (9 knots; 4.7 m/s)
Visibility: 3 miles (5 km)
Ceiling: 300 feet AGL
Clouds: overcast cloud deck at 300 feet AGL
Weather: -RA BR  (light rain, mist)

METAR text: KDUJ 190800Z AUTO 23006KT 1 3/4SM -RA BR OVC003 21/21 A2991 RMK AO2 LTG DSNT SE P0003 T02110211
Conditions at: KDUJ (DU BOIS , PA, US) observed 0800 UTC 19 June 2018
Temperature: 21.1°C (70°F)
Dewpoint: 21.1°C (70°F) [RH = 100%]
Pressure (altimeter): 29.91 inches Hg (1013.0 mb)
Winds: from the SW (230 degrees) at 7 MPH (6 knots; 3.1 m/s)
Visibility: 1.75 miles (2.82 km)
Ceiling: 300 feet AGL
Clouds: overcast cloud deck at 300 feet AGL
Weather: -RA BR  (light rain, mist)

METAR text: KDUJ 190753Z AUTO 24005KT 3SM -RA BR BKN003 OVC055 21/21 A2992 RMK AO2 LTG DSNT SE RAE33B51 SLP114 P0011 T02110211
Conditions at: KDUJ (DU BOIS , PA, US) observed 0753 UTC 19 June 2018
Temperature: 21.1°C (70°F)
Dewpoint: 21.1°C (70°F) [RH = 100%]
Pressure (altimeter): 29.92 inches Hg (1013.3 mb)
[Sea-level pressure: 1011.4 mb]
Winds: from the WSW (240 degrees) at 6 MPH (5 knots; 2.6 m/s)
Visibility: 3 miles (5 km)
Ceiling: 300 feet AGL
Clouds: broken clouds at 300 feet AGL
overcast cloud deck at 5500 feet AGL
Weather: -RA BR  (light rain, mist)

METAR text: KDUJ 190733Z AUTO 24006KT 5SM BR SCT005 BKN050 OVC090 21/21 A2992 RMK AO2 LTG DSNT S RAE33 P0010 T02110211
Conditions at: KDUJ (DU BOIS , PA, US) observed 0733 UTC 19 June 2018
Temperature: 21.1°C (70°F)
Dewpoint: 21.1°C (70°F) [RH = 100%]
Pressure (altimeter): 29.92 inches Hg (1013.3 mb)
Winds: from the WSW (240 degrees) at 7 MPH (6 knots; 3.1 m/s)
Visibility: 5 miles (8 km)
Ceiling: 5000 feet AGL
Clouds: scattered clouds at 500 feet AGL
broken clouds at 5000 feet AGL
overcast cloud deck at 9000 feet AGL
Weather: BR  (mist)

METAR text: KDUJ 190722Z AUTO 24006KT 2SM -RA BR SCT004 BKN039 OVC090 21/21 A2992 RMK AO2 LTG DSNT S P0010 T02110211
Conditions at: KDUJ (DU BOIS , PA, US) observed 0722 UTC 19 June 2018
Temperature: 21.1°C (70°F)
Dewpoint: 21.1°C (70°F) [RH = 100%]
Pressure (altimeter): 29.92 inches Hg (1013.3 mb)
Winds: from the WSW (240 degrees) at 7 MPH (6 knots; 3.1 m/s)
Visibility: 2.00 miles (3.22 km)
Ceiling: 3900 feet AGL
Clouds: scattered clouds at 400 feet AGL
broken clouds at 3900 feet AGL
overcast cloud deck at 9000 feet AGL
Weather: -RA BR  (light rain, mist)

METAR text: KDUJ 190711Z AUTO 25007KT 2SM -RA BR BKN004 BKN029 OVC075 21/21 A2992 RMK AO2 LTG DSNT S AND SW P0007 T02110211
Conditions at: KDUJ (DU BOIS , PA, US) observed 0711 UTC 19 June 2018
Temperature: 21.1°C (70°F)
Dewpoint: 21.1°C (70°F) [RH = 100%]
Pressure (altimeter): 29.92 inches Hg (1013.3 mb)
Winds: from the WSW (250 degrees) at 8 MPH (7 knots; 3.6 m/s)
Visibility: 2.00 miles (3.22 km)
Ceiling: 400 feet AGL
Clouds: broken clouds at 400 feet AGL
broken clouds at 2900 feet AGL
overcast cloud deck at 7500 feet AGL
Weather: -RA BR  (light rain, mist)

METAR text: KDUJ 190653Z AUTO 30005KT 1 1/2SM -RA BR OVC003 21/21 A2993 RMK AO2 RAE18B45 SLP119 P0007 T02110211
Conditions at: KDUJ (DU BOIS , PA, US) observed 0653 UTC 19 June 2018
Temperature: 21.1°C (70°F)
Dewpoint: 21.1°C (70°F) [RH = 100%]
Pressure (altimeter): 29.93 inches Hg (1013.6 mb)
[Sea-level pressure: 1011.9 mb]
Winds: from the WNW (300 degrees) at 6 MPH (5 knots; 2.6 m/s)
Visibility: 1.50 miles (2.41 km)
Ceiling: 300 feet AGL
Clouds: overcast cloud deck at 300 feet AGL
Weather: -RA BR  (light rain, mist)

METAR text: KDUJ 190651Z AUTO 31006KT 2SM -RA BR OVC003 21/21 A2993 RMK AO2 VIS 1V4 RAE18B45 P0006
Conditions at: KDUJ (DU BOIS , PA, US) observed 0651 UTC 19 June 2018
Temperature: 21.0°C (70°F)
Dewpoint: 21.0°C (70°F) [RH = 100%]
Pressure (altimeter): 29.93 inches Hg (1013.6 mb)
Winds: from the NW (310 degrees) at 7 MPH (6 knots; 3.1 m/s)
Visibility: 2.00 miles (3.22 km)
Ceiling: 300 feet AGL
Clouds: overcast cloud deck at 300 feet AGL
Weather: -RA BR  (light rain, mist)

METAR text: KDUJ 190609Z AUTO 26007KT 4SM -RA BR OVC004 21/21 A2992 RMK AO2 LTG DSNT S P0002 T02110211
Conditions at: KDUJ (DU BOIS , PA, US) observed 0609 UTC 19 June 2018
Temperature: 21.1°C (70°F)
Dewpoint: 21.1°C (70°F) [RH = 100%]
Pressure (altimeter): 29.92 inches Hg (1013.3 mb)
Winds: from the W (260 degrees) at 8 MPH (7 knots; 3.6 m/s)
Visibility: 4 miles (6 km)
Ceiling: 400 feet AGL
Clouds: overcast cloud deck at 400 feet AGL
Weather: -RA BR  (light rain, mist)

METAR text: KDUJ 190600Z AUTO 24006KT 2 1/2SM -RA BR BKN004 BKN055 21/21 A2992 RMK AO2 P0002 T02110211
Conditions at: KDUJ (DU BOIS , PA, US) observed 0600 UTC 19 June 2018
Temperature: 21.1°C (70°F)
Dewpoint: 21.1°C (70°F) [RH = 100%]
Pressure (altimeter): 29.92 inches Hg (1013.3 mb)
Winds: from the WSW (240 degrees) at 7 MPH (6 knots; 3.1 m/s)
Visibility: 2.50 miles (4.02 km)
Ceiling: 400 feet AGL
Clouds: broken clouds at 400 feet AGL
broken clouds at 5500 feet AGL
Weather: -RA BR  (light rain, mist)

METAR text: KDUJ 190553Z AUTO 24009KT 5SM -RA BR BKN005 BKN049 OVC090 21/21 A2992 RMK AO2 RAE16B51 SLP115 P0002 60070 T02110211 10244 20206 58009
Conditions at: KDUJ (DU BOIS , PA, US) observed 0553 UTC 19 June 2018
Temperature: 21.1°C (70°F)
Dewpoint: 21.1°C (70°F) [RH = 100%]
Pressure (altimeter): 29.92 inches Hg (1013.3 mb)
[Sea-level pressure: 1011.5 mb]
Winds: from the WSW (240 degrees) at 10 MPH (9 knots; 4.7 m/s)
Visibility: 5 miles (8 km)
Ceiling: 500 feet AGL
Clouds: broken clouds at 500 feet AGL
broken clouds at 4900 feet AGL
overcast cloud deck at 9000 feet AGL
Weather: -RA BR  (light rain, mist)

METAR text: KDUJ 190530Z AUTO 27009KT 9SM FEW005 SCT046 BKN060 21/21 A2993 RMK AO2 LTG DSNT SW RAE16 P0002 T02110206
Conditions at: KDUJ (DU BOIS , PA, US) observed 0530 UTC 19 June 2018
Temperature: 21.1°C (70°F)
Dewpoint: 20.6°C (69°F) [RH = 97%]
Pressure (altimeter): 29.93 inches Hg (1013.6 mb)
Winds: from the W (270 degrees) at 10 MPH (9 knots; 4.7 m/s)
Visibility: 9 miles (14 km)
Ceiling: 6000 feet AGL
Clouds: few clouds at 500 feet AGL
scattered clouds at 4600 feet AGL
broken clouds at 6000 feet AGL
Weather: automated observation with no human augmentation;
there may or may not be significant weather present at this time

METAR text: KDUJ 190453Z AUTO 26010G18KT 4SM -RA BR BKN048 BKN060 OVC085 21/21 A2994 RMK AO2 LTG DSNT SE TSB05E25 SLP122 P0023 T02110206 403170206
Conditions at: KDUJ (DU BOIS , PA, US) observed 0453 UTC 19 June 2018
Temperature: 21.1°C (70°F)
Dewpoint: 20.6°C (69°F) [RH = 97%]
Pressure (altimeter): 29.94 inches Hg (1014.0 mb)
[Sea-level pressure: 1012.2 mb]
Winds: from the W (260 degrees) at 12 MPH (10 knots; 5.2 m/s)
gusting to 21 MPH (18 knots; 9.4 m/s)
Visibility: 4 miles (6 km)
Ceiling: 4800 feet AGL
Clouds: broken clouds at 4800 feet AGL
broken clouds at 6000 feet AGL
overcast cloud deck at 8500 feet AGL
Weather: -RA BR  (light rain, mist)

METAR text: KDUJ 190444Z AUTO 26015G23KT 5SM VCTS -RA BR BKN047 BKN055 OVC100 22/21 A2994 RMK AO2 LTG DSNT SE TSB05E25 P0021 T02170206
Conditions at: KDUJ (DU BOIS , PA, US) observed 0444 UTC 19 June 2018
Temperature: 21.7°C (71°F)
Dewpoint: 20.6°C (69°F) [RH = 93%]
Pressure (altimeter): 29.94 inches Hg (1014.0 mb)
Winds: from the W (260 degrees) at 17 MPH (15 knots; 7.8 m/s)
gusting to 26 MPH (23 knots; 12.0 m/s)
Visibility: 5 miles (8 km)
Ceiling: 4700 feet AGL
Clouds: broken clouds at 4700 feet AGL
broken clouds at 5500 feet AGL
overcast cloud deck at 10000 feet AGL
Weather: VCTS -RA BR  (thunderstorm in vicinity, light rain, mist)

METAR text: KDUJ 190431Z AUTO 26012KT 3SM RA BR FEW006 BKN050 OVC100 21/21 A2994 RMK AO2 LTG DSNT S TSB05E25 P0018 T02110206
Conditions at: KDUJ (DU BOIS , PA, US) observed 0431 UTC 19 June 2018
Temperature: 21.1°C (70°F)
Dewpoint: 20.6°C (69°F) [RH = 97%]
Pressure (altimeter): 29.94 inches Hg (1014.0 mb)
Winds: from the W (260 degrees) at 14 MPH (12 knots; 6.2 m/s)
Visibility: 3 miles (5 km)
Ceiling: 5000 feet AGL
Clouds: few clouds at 600 feet AGL
broken clouds at 5000 feet AGL
overcast cloud deck at 10000 feet AGL
Weather: RA BR  (rain, mist)

METAR text: KDUJ 190420Z AUTO 24010KT 3SM -TSRA BR FEW005 BKN044 OVC100 21/21 A2995 RMK AO2 LTG DSNT SE-SW TSB05 P0014 T02110211
Conditions at: KDUJ (DU BOIS , PA, US) observed 0420 UTC 19 June 2018
Temperature: 21.1°C (70°F)
Dewpoint: 21.1°C (70°F) [RH = 100%]
Pressure (altimeter): 29.95 inches Hg (1014.3 mb)
Winds: from the WSW (240 degrees) at 12 MPH (10 knots; 5.2 m/s)
Visibility: 3 miles (5 km)
Ceiling: 4400 feet AGL
Clouds: few clouds at 500 feet AGL
broken clouds at 4400 feet AGL
overcast cloud deck at 10000 feet AGL
Weather: -TSRA BR  (light rain associated with thunderstorm(s), mist)

METAR text: KDUJ 190408Z AUTO 25011KT 1 1/4SM TSRA BR SCT004 BKN017 OVC120 21/21 A2995 RMK AO2 LTG DSNT SE-SW TSB05 P0011 T02110206
Conditions at: KDUJ (DU BOIS , PA, US) observed 0408 UTC 19 June 2018
Temperature: 21.1°C (70°F)
Dewpoint: 20.6°C (69°F) [RH = 97%]
Pressure (altimeter): 29.95 inches Hg (1014.3 mb)
Winds: from the WSW (250 degrees) at 13 MPH (11 knots; 5.7 m/s)
Visibility: 1.25 miles (2.01 km)
Ceiling: 1700 feet AGL
Clouds: scattered clouds at 400 feet AGL
broken clouds at 1700 feet AGL
overcast cloud deck at 12000 feet AGL
Weather: TSRA BR  (rain associated with thunderstorm(s), mist)

METAR text: KDUJ 190406Z AUTO 25011KT 2SM -TSRA BR SCT004 BKN043 OVC120 21/21 A2996 RMK AO2 LTG DSNT SE-SW TSB05 P0007 T02110206
Conditions at: KDUJ (DU BOIS , PA, US) observed 0406 UTC 19 June 2018
Temperature: 21.1°C (70°F)
Dewpoint: 20.6°C (69°F) [RH = 97%]
Pressure (altimeter): 29.96 inches Hg (1014.6 mb)
Winds: from the WSW (250 degrees) at 13 MPH (11 knots; 5.7 m/s)
Visibility: 2.00 miles (3.22 km)
Ceiling: 4300 feet AGL
Clouds: scattered clouds at 400 feet AGL
broken clouds at 4300 feet AGL
overcast cloud deck at 12000 feet AGL
Weather: -TSRA BR  (light rain associated with thunderstorm(s), mist)

METAR text: KDUJ 190353Z AUTO 25008KT 5SM VCTS -RA BR SCT004 SCT043 BKN085 21/21 A2995 RMK AO2 LTG DSNT E-SW TSE22 SLP127 P0006 T02060206
Conditions at: KDUJ (DU BOIS , PA, US) observed 0353 UTC 19 June 2018
Temperature: 20.6°C (69°F)
Dewpoint: 20.6°C (69°F) [RH = 100%]
Pressure (altimeter): 29.95 inches Hg (1014.3 mb)
[Sea-level pressure: 1012.7 mb]
Winds: from the WSW (250 degrees) at 9 MPH (8 knots; 4.2 m/s)
Visibility: 5 miles (8 km)
Ceiling: 8500 feet AGL
Clouds: scattered clouds at 400 feet AGL
scattered clouds at 4300 feet AGL
broken clouds at 8500 feet AGL
Weather: VCTS -RA BR  (thunderstorm in vicinity, light rain, mist)

METAR text: KDUJ 190348Z AUTO 24007KT 4SM VCTS -RA BR FEW004 SCT045 BKN110 21/21 A2995 RMK AO2 LTG DSNT E-SW TSE22 P0006
Conditions at: KDUJ (DU BOIS , PA, US) observed 0348 UTC 19 June 2018
Temperature: 21.0°C (70°F)
Dewpoint: 21.0°C (70°F) [RH = 100%]
Pressure (altimeter): 29.95 inches Hg (1014.3 mb)
Winds: from the WSW (240 degrees) at 8 MPH (7 knots; 3.6 m/s)
Visibility: 4 miles (6 km)
Ceiling: 11000 feet AGL
Clouds: few clouds at 400 feet AGL
scattered clouds at 4500 feet AGL
broken clouds at 11000 feet AGL
Weather: VCTS -RA BR  (thunderstorm in vicinity, light rain, mist)

METAR text: KDUJ 190328Z AUTO 26007KT 5SM -RA BR FEW005 BKN095 BKN120 21/21 A2995 RMK AO2 LTG DSNT SE-W TSE22 P0005 T02110211
Conditions at: KDUJ (DU BOIS , PA, US) observed 0328 UTC 19 June 2018
Temperature: 21.1°C (70°F)
Dewpoint: 21.1°C (70°F) [RH = 100%]
Pressure (altimeter): 29.95 inches Hg (1014.3 mb)
Winds: from the W (260 degrees) at 8 MPH (7 knots; 3.6 m/s)
Visibility: 5 miles (8 km)
Ceiling: 9500 feet AGL
Clouds: few clouds at 500 feet AGL
broken clouds at 9500 feet AGL
broken clouds at 12000 feet AGL
Weather: -RA BR  (light rain, mist)

METAR text: KDUJ 190302Z AUTO 29009KT 3SM -TSRA BR FEW009 BKN043 OVC110 21/21 A2995 RMK AO2 LTG DSNT ALQDS P0002 T02110206
Conditions at: KDUJ (DU BOIS , PA, US) observed 0302 UTC 19 June 2018
Temperature: 21.1°C (70°F)
Dewpoint: 20.6°C (69°F) [RH = 97%]
Pressure (altimeter): 29.95 inches Hg (1014.3 mb)
Winds: from the WNW (290 degrees) at 10 MPH (9 knots; 4.7 m/s)
Visibility: 3 miles (5 km)
Ceiling: 4300 feet AGL
Clouds: few clouds at 900 feet AGL
broken clouds at 4300 feet AGL
overcast cloud deck at 11000 feet AGL
Weather: -TSRA BR  (light rain associated with thunderstorm(s), mist)

METAR text: KDUJ 190253Z AUTO 29015G22KT 2 1/2SM -TSRA BR FEW012 BKN037 OVC070 21/21 A2997 RMK AO2 PK WND 30040/0226 LTG DSNT ALQDS RAB28 TSB23E28 SLP131 P0039 60039 T02110206 53015
Conditions at: KDUJ (DU BOIS , PA, US) observed 0253 UTC 19 June 2018
Temperature: 21.1°C (70°F)
Dewpoint: 20.6°C (69°F) [RH = 97%]
Pressure (altimeter): 29.97 inches Hg (1015.0 mb)
[Sea-level pressure: 1013.1 mb]
Winds: from the WNW (290 degrees) at 17 MPH (15 knots; 7.8 m/s)
gusting to 25 MPH (22 knots; 11.4 m/s)
Visibility: 2.50 miles (4.02 km)
Ceiling: 3700 feet AGL
Clouds: few clouds at 1200 feet AGL
broken clouds at 3700 feet AGL
overcast cloud deck at 7000 feet AGL
Weather: -TSRA BR  (light rain associated with thunderstorm(s), mist)

METAR text: KDUJ 190243Z AUTO 30016G26KT 1 1/4SM TSRA BR BKN030 BKN045 OVC050 21/21 A2997 RMK AO2 PK WND 30040/0226 LTG DSNT ALQDS RAB28 TSB23E28 P0036 T02110206
Conditions at: KDUJ (DU BOIS , PA, US) observed 0243 UTC 19 June 2018
Temperature: 21.1°C (70°F)
Dewpoint: 20.6°C (69°F) [RH = 97%]
Pressure (altimeter): 29.97 inches Hg (1015.0 mb)
Winds: from the WNW (300 degrees) at 18 MPH (16 knots; 8.3 m/s)
gusting to 30 MPH (26 knots; 13.5 m/s)
Visibility: 1.25 miles (2.01 km)
Ceiling: 3000 feet AGL
Clouds: broken clouds at 3000 feet AGL
broken clouds at 4500 feet AGL
overcast cloud deck at 5000 feet AGL
Weather: TSRA BR  (rain associated with thunderstorm(s), mist)

METAR text: KDUJ 190235Z AUTO 30014G40KT 1/2SM +TSRA FG BKN018 BKN045 OVC055 21/20 A2997 RMK AO2 PK WND 30040/0226 LTG DSNT W AND NW RAB28 TSB23E28 P0030 T02060200
Conditions at: KDUJ (DU BOIS , PA, US) observed 0235 UTC 19 June 2018
Temperature: 20.6°C (69°F)
Dewpoint: 20.0°C (68°F) [RH = 96%]
Pressure (altimeter): 29.97 inches Hg (1015.0 mb)
Winds: from the WNW (300 degrees) at 16 MPH (14 knots; 7.3 m/s)
gusting to 46 MPH (40 knots; 20.8 m/s)
Visibility: 0.50 miles (0.80 km)
Ceiling: 1800 feet AGL
Clouds: broken clouds at 1800 feet AGL
broken clouds at 4500 feet AGL
overcast cloud deck at 5500 feet AGL
Weather: +TSRA FG  (heavy rain associated with thunderstorm(s), fog)

METAR text: KDUJ 190211Z AUTO 25007KT 8SM VCTS BKN060 BKN070 24/22 A2993 RMK AO2 LTG DSNT ALQDS T02440217
Conditions at: KDUJ (DU BOIS , PA, US) observed 0211 UTC 19 June 2018
Temperature: 24.4°C (76°F)
Dewpoint: 21.7°C (71°F) [RH = 85%]
Pressure (altimeter): 29.93 inches Hg (1013.6 mb)
Winds: from the WSW (250 degrees) at 8 MPH (7 knots; 3.6 m/s)
Visibility: 8 miles (13 km)
Ceiling: 6000 feet AGL
Clouds: broken clouds at 6000 feet AGL
broken clouds at 7000 feet AGL
Weather: VCTS  (thunderstorm in vicinity)

METAR text: KDUJ 190153Z AUTO 24005KT 8SM CLR 23/22 A2992 RMK AO2 LTG DSNT N AND NW SLP114 T02330217
Conditions at: KDUJ (DU BOIS , PA, US) observed 0153 UTC 19 June 2018
Temperature: 23.3°C (74°F)
Dewpoint: 21.7°C (71°F) [RH = 91%]
Pressure (altimeter): 29.92 inches Hg (1013.3 mb)
[Sea-level pressure: 1011.4 mb]
Winds: from the WSW (240 degrees) at 6 MPH (5 knots; 2.6 m/s)
Visibility: 8 miles (13 km)
Ceiling: at least 12,000 feet AGL
Clouds: sky clear below 12,000 feet AGL
Weather: automated observation with no human augmentation;
there may or may not be significant weather present at this time

METAR text: KDUJ 190053Z AUTO 24007KT 9SM CLR 24/22 A2992 RMK AO2 LTG DSNT N AND NW SLP117 T02390217
Conditions at: KDUJ (DU BOIS , PA, US) observed 0053 UTC 19 June 2018
Temperature: 23.9°C (75°F)
Dewpoint: 21.7°C (71°F) [RH = 88%]
Pressure (altimeter): 29.92 inches Hg (1013.3 mb)
[Sea-level pressure: 1011.7 mb]
Winds: from the WSW (240 degrees) at 8 MPH (7 knots; 3.6 m/s)
Visibility: 9 miles (14 km)
Ceiling: at least 12,000 feet AGL
Clouds: sky clear below 12,000 feet AGL
Weather: automated observation with no human augmentation;
there may or may not be significant weather present at this time

METAR text: KDUJ 182353Z AUTO 23006KT 10SM CLR 24/22 A2992 RMK AO2 SLP119 T02440217 10317 20239 56018
Conditions at: KDUJ (DU BOIS , PA, US) observed 2353 UTC 18 June 2018
Temperature: 24.4°C (76°F)
Dewpoint: 21.7°C (71°F) [RH = 85%]
Pressure (altimeter): 29.92 inches Hg (1013.3 mb)
[Sea-level pressure: 1011.9 mb]
Winds: from the SW (230 degrees) at 7 MPH (6 knots; 3.1 m/s)
Visibility: 10 or more miles (16+ km)
Ceiling: at least 12,000 feet AGL
Clouds: sky clear below 12,000 feet AGL
Weather: automated observation with no human augmentation;
there may or may not be significant weather present at this time

METAR text: KDUJ 182253Z AUTO 22005KT 10SM FEW065 25/21 A2994 RMK AO2 SLP125 T02500211
Conditions at: KDUJ (DU BOIS , PA, US) observed 2253 UTC 18 June 2018
Temperature: 25.0°C (77°F)
Dewpoint: 21.1°C (70°F) [RH = 79%]
Pressure (altimeter): 29.94 inches Hg (1014.0 mb)
[Sea-level pressure: 1012.5 mb]
Winds: from the SW (220 degrees) at 6 MPH (5 knots; 2.6 m/s)
Visibility: 10 or more miles (16+ km)
Ceiling: at least 12,000 feet AGL
Clouds: few clouds at 6500 feet AGL
Weather: automated observation with no human augmentation;
there may or may not be significant weather present at this time

METAR text: KDUJ 182153Z AUTO 23004KT 10SM CLR 26/20 A2995 RMK AO2 SLP129 T02560200
Conditions at: KDUJ (DU BOIS , PA, US) observed 2153 UTC 18 June 2018
Temperature: 25.6°C (78°F)
Dewpoint: 20.0°C (68°F) [RH = 71%]
Pressure (altimeter): 29.95 inches Hg (1014.3 mb)
[Sea-level pressure: 1012.9 mb]
Winds: from the SW (230 degrees) at 5 MPH (4 knots; 2.1 m/s)
Visibility: 10 or more miles (16+ km)
Ceiling: at least 12,000 feet AGL
Clouds: sky clear below 12,000 feet AGL
Weather: automated observation with no human augmentation;
there may or may not be significant weather present at this time

METAR text: KDUJ 182053Z AUTO 24012KT 10SM FEW110 24/20 A2998 RMK AO2 LTG DSNT SE AND S SLP138 T02390200 56013
Conditions at: KDUJ (DU BOIS , PA, US) observed 2053 UTC 18 June 2018
Temperature: 23.9°C (75°F)
Dewpoint: 20.0°C (68°F) [RH = 79%]
Pressure (altimeter): 29.98 inches Hg (1015.3 mb)
[Sea-level pressure: 1013.8 mb]
Winds: from the WSW (240 degrees) at 14 MPH (12 knots; 6.2 m/s)
Visibility: 10 or more miles (16+ km)
Ceiling: at least 12,000 feet AGL
Clouds: few clouds at 11000 feet AGL
Weather: automated observation with no human augmentation;
there may or may not be significant weather present at this time

METAR text: KDUJ 181953Z AUTO 24011KT 10SM SCT042 SCT050 30/22 A2999 RMK AO2 LTG DSNT E AND SW AND W SLP140 T03000222
Conditions at: KDUJ (DU BOIS , PA, US) observed 1953 UTC 18 June 2018
Temperature: 30.0°C (86°F)
Dewpoint: 22.2°C (72°F) [RH = 63%]
Pressure (altimeter): 29.99 inches Hg (1015.7 mb)
[Sea-level pressure: 1014.0 mb]
Winds: from the WSW (240 degrees) at 13 MPH (11 knots; 5.7 m/s)
Visibility: 10 or more miles (16+ km)
Ceiling: at least 12,000 feet AGL
Clouds: scattered clouds at 4200 feet AGL
scattered clouds at 5000 feet AGL
Weather: automated observation with no human augmentation;
there may or may not be significant weather present at this time

METAR text: KDUJ 181853Z AUTO 25011G19KT 10SM SCT041 BKN100 29/21 A3001 RMK AO2 LTG DSNT N AND NE SLP145 T02940211
Conditions at: KDUJ (DU BOIS , PA, US) observed 1853 UTC 18 June 2018
Temperature: 29.4°C (85°F)
Dewpoint: 21.1°C (70°F) [RH = 61%]
Pressure (altimeter): 30.01 inches Hg (1016.3 mb)
[Sea-level pressure: 1014.5 mb]
Winds: from the WSW (250 degrees) at 13 MPH (11 knots; 5.7 m/s)
gusting to 22 MPH (19 knots; 9.9 m/s)
Visibility: 10 or more miles (16+ km)
Ceiling: 10000 feet AGL
Clouds: scattered clouds at 4100 feet AGL
broken clouds at 10000 feet AGL
Weather: automated observation with no human augmentation;
there may or may not be significant weather present at this time

METAR text: KDUJ 181753Z AUTO 25013KT 10SM SCT037 SCT055 31/22 A3002 RMK AO2 LTG DSNT N SLP149 T03060217 10306 20222 58015
Conditions at: KDUJ (DU BOIS , PA, US) observed 1753 UTC 18 June 2018
Temperature: 30.6°C (87°F)
Dewpoint: 21.7°C (71°F) [RH = 59%]
Pressure (altimeter): 30.02 inches Hg (1016.7 mb)
[Sea-level pressure: 1014.9 mb]
Winds: from the WSW (250 degrees) at 15 MPH (13 knots; 6.8 m/s)
Visibility: 10 or more miles (16+ km)
Ceiling: at least 12,000 feet AGL
Clouds: scattered clouds at 3700 feet AGL
scattered clouds at 5500 feet AGL
Weather: automated observation with no human augmentation;
there may or may not be significant weather present at this time

METAR text: KDUJ 181653Z AUTO 25015G20KT 10SM FEW065 29/22 A3005 RMK AO2 SLP159 T02940222
Conditions at: KDUJ (DU BOIS , PA, US) observed 1653 UTC 18 June 2018
Temperature: 29.4°C (85°F)
Dewpoint: 22.2°C (72°F) [RH = 65%]
Pressure (altimeter): 30.05 inches Hg (1017.7 mb)
[Sea-level pressure: 1015.9 mb]
Winds: from the WSW (250 degrees) at 17 MPH (15 knots; 7.8 m/s)
gusting to 23 MPH (20 knots; 10.4 m/s)
Visibility: 10 or more miles (16+ km)
Ceiling: at least 12,000 feet AGL
Clouds: few clouds at 6500 feet AGL
Weather: automated observation with no human augmentation;
there may or may not be significant weather present at this time

METAR text: KDUJ 181553Z AUTO 25010KT 8SM SCT025 BKN075 28/23 A3007 RMK AO2 SLP166 T02780228
Conditions at: KDUJ (DU BOIS , PA, US) observed 1553 UTC 18 June 2018
Temperature: 27.8°C (82°F)
Dewpoint: 22.8°C (73°F) [RH = 74%]
Pressure (altimeter): 30.07 inches Hg (1018.4 mb)
[Sea-level pressure: 1016.6 mb]
Winds: from the WSW (250 degrees) at 12 MPH (10 knots; 5.2 m/s)
Visibility: 8 miles (13 km)
Ceiling: 7500 feet AGL
Clouds: scattered clouds at 2500 feet AGL
broken clouds at 7500 feet AGL
Weather: automated observation with no human augmentation;
there may or may not be significant weather present at this time

METAR text: KDUJ 181551Z AUTO 25009KT 8SM SCT025 BKN075 28/23 A3007 RMK AO2
Conditions at: KDUJ (DU BOIS , PA, US) observed 1551 UTC 18 June 2018
Temperature: 28.0°C (82°F)
Dewpoint: 23.0°C (73°F) [RH = 74%]
Pressure (altimeter): 30.07 inches Hg (1018.4 mb)
Winds: from the WSW (250 degrees) at 10 MPH (9 knots; 4.7 m/s)
Visibility: 8 miles (13 km)
Ceiling: 7500 feet AGL
Clouds: scattered clouds at 2500 feet AGL
broken clouds at 7500 feet AGL
Weather: automated observation with no human augmentation;
there may or may not be significant weather present at this time

METAR text: KDUJ 181544Z AUTO 25008KT 8SM BKN025 BKN075 28/22 A3007 RMK AO2 T02780222
Conditions at: KDUJ (DU BOIS , PA, US) observed 1544 UTC 18 June 2018
Temperature: 27.8°C (82°F)
Dewpoint: 22.2°C (72°F) [RH = 72%]
Pressure (altimeter): 30.07 inches Hg (1018.4 mb)
Winds: from the WSW (250 degrees) at 9 MPH (8 knots; 4.2 m/s)
Visibility: 8 miles (13 km)
Ceiling: 2500 feet AGL
Clouds: broken clouds at 2500 feet AGL
broken clouds at 7500 feet AGL
Weather: automated observation with no human augmentation;
there may or may not be significant weather present at this time

METAR text: KDUJ 181453Z AUTO 26010KT 8SM CLR 27/23 A3008 RMK AO2 SLP170 T02720228 57001
Conditions at: KDUJ (DU BOIS , PA, US) observed 1453 UTC 18 June 2018
Temperature: 27.2°C (81°F)
Dewpoint: 22.8°C (73°F) [RH = 77%]
Pressure (altimeter): 30.08 inches Hg (1018.7 mb)
[Sea-level pressure: 1017.0 mb]
Winds: from the W (260 degrees) at 12 MPH (10 knots; 5.2 m/s)
Visibility: 8 miles (13 km)
Ceiling: at least 12,000 feet AGL
Clouds: sky clear below 12,000 feet AGL
Weather: automated observation with no human augmentation;
there may or may not be significant weather present at this time

METAR text: KDUJ 181353Z AUTO 27007KT 6SM HZ FEW050 25/22 A3008 RMK AO2 SLP171 T02500217
Conditions at: KDUJ (DU BOIS , PA, US) observed 1353 UTC 18 June 2018
Temperature: 25.0°C (77°F)
Dewpoint: 21.7°C (71°F) [RH = 82%]
Pressure (altimeter): 30.08 inches Hg (1018.7 mb)
[Sea-level pressure: 1017.1 mb]
Winds: from the W (270 degrees) at 8 MPH (7 knots; 3.6 m/s)
Visibility: 6 miles (10 km)
Ceiling: at least 12,000 feet AGL
Clouds: few clouds at 5000 feet AGL
Weather: HZ  (haze)

METAR text: KDUJ 181253Z AUTO 24008KT 6SM BR CLR 23/21 A3008 RMK AO2 SLP173 T02330211
Conditions at: KDUJ (DU BOIS , PA, US) observed 1253 UTC 18 June 2018
Temperature: 23.3°C (74°F)
Dewpoint: 21.1°C (70°F) [RH = 87%]
Pressure (altimeter): 30.08 inches Hg (1018.7 mb)
[Sea-level pressure: 1017.3 mb]
Winds: from the WSW (240 degrees) at 9 MPH (8 knots; 4.2 m/s)
Visibility: 6 miles (10 km)
Ceiling: at least 12,000 feet AGL
Clouds: sky clear below 12,000 feet AGL
Weather: BR  (mist)

METAR text: KDUJ 181153Z AUTO 23008KT 4SM BR CLR 22/21 A3008 RMK AO2 SLP171 T02220211 10222 20206 50000
Conditions at: KDUJ (DU BOIS , PA, US) observed 1153 UTC 18 June 2018
Temperature: 22.2°C (72°F)
Dewpoint: 21.1°C (70°F) [RH = 93%]
Pressure (altimeter): 30.08 inches Hg (1018.7 mb)
[Sea-level pressure: 1017.1 mb]
Winds: from the SW (230 degrees) at 9 MPH (8 knots; 4.2 m/s)
Visibility: 4 miles (6 km)
Ceiling: at least 12,000 feet AGL
Clouds: sky clear below 12,000 feet AGL
Weather: BR  (mist)

METAR text: KDUJ 181053Z AUTO 23006KT 4SM BR CLR 21/20 A3008 RMK AO2 SLP172 T02110200
Conditions at: KDUJ (DU BOIS , PA, US) observed 1053 UTC 18 June 2018
Temperature: 21.1°C (70°F)
Dewpoint: 20.0°C (68°F) [RH = 93%]
Pressure (altimeter): 30.08 inches Hg (1018.7 mb)
[Sea-level pressure: 1017.2 mb]
Winds: from the SW (230 degrees) at 7 MPH (6 knots; 3.1 m/s)
Visibility: 4 miles (6 km)
Ceiling: at least 12,000 feet AGL
Clouds: sky clear below 12,000 feet AGL
Weather: BR  (mist)

METAR text: KDUJ 180953Z AUTO 24007KT 4SM BR CLR 21/20 A3008 RMK AO2 SLP171 T02110200
Conditions at: KDUJ (DU BOIS , PA, US) observed 0953 UTC 18 June 2018
Temperature: 21.1°C (70°F)
Dewpoint: 20.0°C (68°F) [RH = 93%]
Pressure (altimeter): 30.08 inches Hg (1018.7 mb)
[Sea-level pressure: 1017.1 mb]
Winds: from the WSW (240 degrees) at 8 MPH (7 knots; 3.6 m/s)
Visibility: 4 miles (6 km)
Ceiling: at least 12,000 feet AGL
Clouds: sky clear below 12,000 feet AGL
Weather: BR  (mist)